createdAt,value
2019-03-31T00:00:06.953Z,94.00
2019-03-31T00:02:36.150Z,103.05
2019-03-31T00:05:05.494Z,96.85
2019-03-31T00:07:34.651Z,97.95
2019-03-31T00:10:06.181Z,95.90
2019-03-31T00:12:35.406Z,93.37
2019-03-31T00:15:06.841Z,97.15
2019-03-31T00:17:36.013Z,99.97
2019-03-31T00:20:06.305Z,93.05
2019-03-31T00:22:35.551Z,108.60
2019-03-31T00:25:06.331Z,99.70
2019-03-31T00:27:35.522Z,112.42
2019-03-31T00:30:05.797Z,101.40
2019-03-31T00:32:34.958Z,112.15
2019-03-31T00:35:04.292Z,102.97
2019-03-31T00:37:33.443Z,112.08
2019-03-31T00:40:03.247Z,104.05
2019-03-31T00:42:32.507Z,105.60
2019-03-31T00:45:01.673Z,97.00
2019-03-31T00:47:30.829Z,112.47
2019-03-31T00:50:00.002Z,100.18
2019-03-31T00:52:29.167Z,103.87
2019-03-31T00:54:58.345Z,111.75
2019-03-31T00:57:27.489Z,90.80
2019-03-31T00:59:56.669Z,101.35
2019-03-31T01:02:27.481Z,103.05
2019-03-31T01:04:56.650Z,98.92
2019-03-31T01:07:25.926Z,108.00
2019-03-31T01:09:56.576Z,102.90
2019-03-31T01:14:54.904Z,104.47
2019-03-31T01:17:24.188Z,108.07
2019-03-31T01:19:57.273Z,98.22
2019-03-31T01:22:26.532Z,102.65
2019-03-31T01:24:55.738Z,108.70
2019-03-31T01:27:25.874Z,115.77
2019-03-31T01:29:56.671Z,106.97
2019-03-31T01:32:26.711Z,99.58
2019-03-31T01:34:55.877Z,106.67
2019-03-31T01:37:25.888Z,105.10
2019-03-31T01:39:55.130Z,110.15
2019-03-31T01:42:24.402Z,116.40
2019-03-31T01:44:53.760Z,110.85
2019-03-31T01:47:22.994Z,116.67
2019-03-31T01:49:52.175Z,105.85
2019-03-31T01:52:21.367Z,113.37
2019-03-31T01:54:50.543Z,102.95
2019-03-31T01:57:19.702Z,114.75
2019-03-31T01:59:48.922Z,117.20
2019-03-31T02:02:19.737Z,112.85
2019-03-31T02:04:48.994Z,111.80
2019-03-31T02:07:18.152Z,103.75
2019-03-31T02:09:47.340Z,109.12
2019-03-31T02:12:16.554Z,108.40
2019-03-31T02:14:45.705Z,118.57
2019-03-31T02:17:15.088Z,107.78
2019-03-31T02:19:44.240Z,114.40
2019-03-31T02:22:13.413Z,121.50
2019-03-31T02:24:42.564Z,110.57
2019-03-31T02:27:11.738Z,120.22
2019-03-31T02:29:40.899Z,124.35
2019-03-31T02:32:23.359Z,121.25
2019-03-31T02:34:40.975Z,123.30
2019-03-31T02:37:10.154Z,126.47
2019-03-31T02:39:39.324Z,115.28
2019-03-31T02:42:08.476Z,112.95
2019-03-31T02:44:37.644Z,121.90
2019-03-31T02:47:06.854Z,122.07
2019-03-31T02:49:36.016Z,124.12
2019-03-31T02:52:05.192Z,119.70
2019-03-31T02:54:34.345Z,108.25
2019-03-31T02:57:04.184Z,106.43
2019-03-31T02:59:33.380Z,115.70
2019-03-31T03:02:03.135Z,104.25
2019-03-31T03:04:33.308Z,114.35
2019-03-31T03:07:03.616Z,102.32
2019-03-31T03:09:33.161Z,110.15
2019-03-31T03:12:02.348Z,104.65
2019-03-31T03:14:34.915Z,108.42
2019-03-31T03:17:04.086Z,104.55
2019-03-31T03:19:33.330Z,104.25
2019-03-31T03:22:02.500Z,105.80
2019-03-31T03:24:31.683Z,94.55
2019-03-31T03:27:00.846Z,96.50
2019-03-31T03:29:29.999Z,96.20
2019-03-31T03:31:59.165Z,90.90
2019-03-31T03:34:28.379Z,94.00
2019-03-31T03:36:57.629Z,89.07
2019-03-31T03:39:26.832Z,81.50
2019-03-31T03:41:56.002Z,79.42
2019-03-31T03:44:25.175Z,80.30
2019-03-31T03:46:54.321Z,71.67
2019-03-31T03:49:23.506Z,80.77
2019-03-31T03:51:52.667Z,73.60
2019-03-31T03:54:21.849Z,76.80
2019-03-31T03:56:51.010Z,74.20
2019-03-31T03:59:20.177Z,68.90
2019-03-31T04:01:49.348Z,73.33
2019-03-31T04:04:18.574Z,70.00
2019-03-31T04:06:47.764Z,68.83
2019-03-31T04:09:16.945Z,63.23
2019-03-31T04:11:46.181Z,56.92
2019-03-31T04:14:15.343Z,59.08
2019-03-31T04:16:44.581Z,62.20
2019-03-31T04:19:14.225Z,58.40
2019-03-31T04:21:43.538Z,69.13
2019-03-31T04:24:12.721Z,59.95
2019-03-31T04:26:41.953Z,55.83
2019-03-31T04:29:11.099Z,62.45
2019-03-31T04:31:40.273Z,58.75
2019-03-31T04:34:09.429Z,57.27
2019-03-31T04:36:38.772Z,50.20
2019-03-31T04:39:08.680Z,53.33
2019-03-31T04:41:37.839Z,43.48
2019-03-31T04:44:07.022Z,52.00
2019-03-31T04:46:36.169Z,46.33
2019-03-31T04:49:05.471Z,54.75
2019-03-31T04:51:34.617Z,54.08
2019-03-31T04:54:03.844Z,54.60
2019-03-31T04:56:33.010Z,50.88
2019-03-31T04:59:02.191Z,57.30
2019-03-31T05:01:31.363Z,57.50
2019-03-31T05:04:04.937Z,54.95
2019-03-31T05:06:33.035Z,46.20
2019-03-31T05:09:02.199Z,49.42
2019-03-31T05:11:31.359Z,51.77
2019-03-31T05:14:00.533Z,54.35
2019-03-31T05:16:29.689Z,47.27
2019-03-31T05:18:58.893Z,50.85
2019-03-31T05:21:28.162Z,57.60
2019-03-31T05:23:57.393Z,55.20
2019-03-31T05:26:26.546Z,64.17
2019-03-31T05:28:55.721Z,48.58
2019-03-31T05:31:24.873Z,55.10
2019-03-31T05:33:54.030Z,61.37
2019-03-31T05:36:23.375Z,67.05
2019-03-31T05:38:52.566Z,65.87
2019-03-31T05:41:21.789Z,68.47
2019-03-31T05:44:04.806Z,63.80
2019-03-31T05:46:21.820Z,64.05
2019-03-31T05:48:50.974Z,59.05
2019-03-31T05:51:20.170Z,67.45
2019-03-31T05:53:49.352Z,61.37
2019-03-31T05:56:18.532Z,63.98
2019-03-31T05:58:47.680Z,64.27
2019-03-31T06:01:16.921Z,66.75
2019-03-31T06:03:46.147Z,70.85
2019-03-31T06:06:15.352Z,67.37
2019-03-31T06:08:44.546Z,64.07
2019-03-31T06:11:13.847Z,65.32
2019-03-31T06:13:43.028Z,65.22
2019-03-31T06:16:12.192Z,59.85
2019-03-31T06:18:41.352Z,60.40
2019-03-31T06:21:10.556Z,62.95
2019-03-31T06:23:39.810Z,57.58
2019-03-31T06:26:09.059Z,50.52
2019-03-31T06:28:38.249Z,54.25
2019-03-31T06:31:12.895Z,55.05
2019-03-31T06:33:42.046Z,59.23
2019-03-31T06:36:11.219Z,49.18
2019-03-31T06:38:42.080Z,47.60
2019-03-31T06:41:11.292Z,43.30
2019-03-31T06:43:40.450Z,47.75
2019-03-31T06:46:09.602Z,48.48
2019-03-31T06:48:38.858Z,51.70
2019-03-31T06:51:08.035Z,47.30
2019-03-31T06:53:37.193Z,51.80
2019-03-31T06:56:06.427Z,49.98
2019-03-31T06:58:35.732Z,46.23
2019-03-31T07:01:04.895Z,46.23
2019-03-31T07:03:34.142Z,46.60
2019-03-31T07:06:03.410Z,48.28
2019-03-31T07:08:32.598Z,39.58
2019-03-31T07:11:01.761Z,44.05
2019-03-31T07:13:31.019Z,47.58
2019-03-31T07:16:00.220Z,47.43
2019-03-31T07:18:29.426Z,54.03
2019-03-31T07:20:58.598Z,44.85
2019-03-31T07:23:28.066Z,35.88
2019-03-31T07:25:57.374Z,47.35
2019-03-31T07:28:26.531Z,51.65
2019-03-31T07:30:55.688Z,51.75
2019-03-31T07:33:26.483Z,47.75
2019-03-31T07:35:55.937Z,47.45
2019-03-31T07:38:38.702Z,43.42
2019-03-31T07:41:12.934Z,46.48
2019-03-31T07:43:39.841Z,33.75
2019-03-31T07:46:08.988Z,41.20
2019-03-31T07:48:38.169Z,43.10
2019-03-31T07:51:07.399Z,44.40
2019-03-31T07:53:36.665Z,36.70
2019-03-31T07:56:05.880Z,38.23
2019-03-31T07:58:35.033Z,34.65
2019-03-31T08:01:10.887Z,36.50
2019-03-31T08:03:40.049Z,27.80
2019-03-31T08:06:09.417Z,29.65
2019-03-31T08:08:41.327Z,28.30
2019-03-31T08:11:23.361Z,33.98
2019-03-31T08:13:51.228Z,27.90
2019-03-31T08:16:20.402Z,26.02
2019-03-31T08:18:49.705Z,29.72
2019-03-31T08:21:28.217Z,26.57
2019-03-31T08:23:57.103Z,28.62
2019-03-31T08:26:26.305Z,27.00
2019-03-31T08:28:58.511Z,25.72
2019-03-31T08:31:26.395Z,18.98
2019-03-31T08:33:55.552Z,20.30
2019-03-31T08:36:26.381Z,17.73
2019-03-31T08:38:55.618Z,18.35
2019-03-31T08:41:24.796Z,20.48
2019-03-31T08:43:53.959Z,13.72
2019-03-31T08:46:23.394Z,21.35
2019-03-31T08:48:52.598Z,17.27
2019-03-31T08:51:21.785Z,25.52
2019-03-31T08:53:50.942Z,16.52
2019-03-31T08:56:21.751Z,21.35
2019-03-31T08:58:50.948Z,17.62
2019-03-31T09:01:21.804Z,15.03
2019-03-31T09:03:51.018Z,21.85
2019-03-31T09:06:20.183Z,21.90
2019-03-31T09:08:49.365Z,20.97
2019-03-31T09:11:18.634Z,15.55
2019-03-31T09:13:47.788Z,23.40
2019-03-31T09:16:16.954Z,15.28
2019-03-31T09:18:46.118Z,15.98
2019-03-31T09:21:17.377Z,17.85
2019-03-31T09:23:46.262Z,14.23
2019-03-31T09:26:15.471Z,16.00
2019-03-31T09:28:44.698Z,15.15
2019-03-31T09:31:14.146Z,17.77
2019-03-31T09:33:43.331Z,15.60
2019-03-31T09:36:16.356Z,17.07
2019-03-31T09:38:43.772Z,16.95
2019-03-31T09:41:12.916Z,15.43
2019-03-31T09:43:42.095Z,17.17
2019-03-31T09:46:11.251Z,17.77
2019-03-31T09:48:40.418Z,18.23
2019-03-31T09:51:09.596Z,12.28
2019-03-31T09:53:38.752Z,12.60
2019-03-31T09:56:08.282Z,13.13
2019-03-31T09:58:37.486Z,18.90
2019-03-31T10:01:08.237Z,12.90
2019-03-31T10:03:37.512Z,11.90
2019-03-31T10:06:10.968Z,11.10
2019-03-31T10:08:37.592Z,16.82
2019-03-31T10:11:06.935Z,14.30
2019-03-31T10:13:36.096Z,14.05
2019-03-31T10:16:05.261Z,15.15
2019-03-31T10:18:34.501Z,17.45
2019-03-31T10:21:03.688Z,14.05
2019-03-31T10:23:32.860Z,10.38
2019-03-31T10:26:02.025Z,16.32
2019-03-31T10:28:31.192Z,16.67
2019-03-31T10:31:00.375Z,13.90
2019-03-31T10:33:29.533Z,14.10
2019-03-31T10:35:58.710Z,14.68
2019-03-31T10:38:27.896Z,16.50
2019-03-31T10:40:57.072Z,11.45
2019-03-31T10:43:26.280Z,10.82
2019-03-31T10:45:57.084Z,15.60
2019-03-31T10:48:26.285Z,14.23
2019-03-31T10:50:55.440Z,16.95
2019-03-31T10:53:24.645Z,10.72
2019-03-31T10:55:54.244Z,9.88
2019-03-31T10:58:23.517Z,10.77
2019-03-31T11:00:54.244Z,13.65
2019-03-31T11:03:25.048Z,13.38
2019-03-31T11:05:54.435Z,10.55
2019-03-31T11:08:23.598Z,10.68
2019-03-31T11:10:52.768Z,10.00
2019-03-31T11:13:21.938Z,7.95
2019-03-31T11:15:51.130Z,10.13
2019-03-31T11:18:24.912Z,9.90
2019-03-31T11:20:54.178Z,10.58
2019-03-31T11:23:25.000Z,9.60
2019-03-31T11:25:54.199Z,9.48
2019-03-31T11:28:23.592Z,6.97
2019-03-31T11:31:06.189Z,8.30
2019-03-31T11:33:31.214Z,7.67
2019-03-31T11:36:00.564Z,9.53
2019-03-31T11:38:30.388Z,8.75
2019-03-31T11:41:01.196Z,6.60
2019-03-31T11:43:30.515Z,5.53
2019-03-31T11:45:59.680Z,6.33
2019-03-31T11:48:28.837Z,8.85
2019-03-31T11:51:00.426Z,9.83
2019-03-31T11:53:29.930Z,8.90
2019-03-31T11:55:59.569Z,7.25
2019-03-31T11:58:32.029Z,6.97
2019-03-31T12:00:59.648Z,5.85
2019-03-31T12:03:30.951Z,6.60
2019-03-31T12:05:59.785Z,4.53
2019-03-31T12:08:29.051Z,7.53
2019-03-31T12:10:58.364Z,7.65
2019-03-31T12:13:27.541Z,9.75
2019-03-31T12:15:56.740Z,6.92
2019-03-31T12:18:25.896Z,9.38
2019-03-31T12:20:55.054Z,8.93
2019-03-31T12:23:24.230Z,14.80
2019-03-31T12:25:53.401Z,8.48
2019-03-31T12:28:22.649Z,6.10
2019-03-31T12:30:51.920Z,8.38
2019-03-31T12:33:22.793Z,6.40
2019-03-31T12:35:58.978Z,10.15
2019-03-31T12:38:28.156Z,5.33
2019-03-31T12:40:57.322Z,7.65
2019-03-31T12:43:26.493Z,6.08
2019-03-31T12:45:55.741Z,7.28
2019-03-31T12:48:24.896Z,9.83
2019-03-31T12:50:54.095Z,12.40
2019-03-31T12:53:23.245Z,10.58
2019-03-31T12:55:59.870Z,7.33
2019-03-31T12:58:23.399Z,13.95
2019-03-31T13:00:53.137Z,9.10
2019-03-31T13:03:22.320Z,7.55
2019-03-31T13:06:10.984Z,5.17
2019-03-31T13:08:40.166Z,10.80
2019-03-31T13:11:09.321Z,6.37
2019-03-31T13:13:38.485Z,8.58
2019-03-31T13:16:09.357Z,6.17
2019-03-31T13:18:38.705Z,9.83
2019-03-31T13:21:08.404Z,9.50
2019-03-31T13:23:37.593Z,8.33
2019-03-31T13:26:06.900Z,6.87
2019-03-31T13:28:36.151Z,11.95
2019-03-31T13:31:05.394Z,8.78
2019-03-31T13:33:34.943Z,9.13
2019-03-31T13:36:04.112Z,5.65
2019-03-31T13:38:33.296Z,7.15
2019-03-31T13:41:04.135Z,10.13
2019-03-31T13:43:33.367Z,7.15
2019-03-31T13:46:02.529Z,8.55
2019-03-31T13:48:31.734Z,7.85
2019-03-31T13:51:00.957Z,5.92
2019-03-31T13:53:30.136Z,14.33
2019-03-31T13:55:59.298Z,10.95
2019-03-31T13:58:28.985Z,11.30
2019-03-31T14:00:58.447Z,9.85
2019-03-31T14:03:27.726Z,12.37
2019-03-31T14:05:56.919Z,8.13
2019-03-31T14:08:26.388Z,6.45
2019-03-31T14:10:55.652Z,14.75
2019-03-31T14:13:24.825Z,10.23
2019-03-31T14:15:54.024Z,7.78
2019-03-31T14:18:23.397Z,8.23
2019-03-31T14:20:52.560Z,8.60
2019-03-31T14:23:21.745Z,11.63
2019-03-31T14:25:50.911Z,9.88
2019-03-31T14:28:20.172Z,12.28
2019-03-31T14:30:49.353Z,8.00
2019-03-31T14:33:18.598Z,8.10
2019-03-31T14:35:47.781Z,11.40
2019-03-31T14:38:19.396Z,12.30
2019-03-31T14:40:48.604Z,13.53
2019-03-31T14:43:17.857Z,9.88
2019-03-31T14:45:47.062Z,9.43
2019-03-31T14:48:16.343Z,5.97
2019-03-31T14:50:45.517Z,8.48
2019-03-31T14:53:14.882Z,15.43
2019-03-31T14:55:44.062Z,11.95
2019-03-31T14:58:13.255Z,7.80
2019-03-31T15:00:42.439Z,9.40
2019-03-31T15:03:11.706Z,12.07
2019-03-31T15:05:40.928Z,8.15
2019-03-31T15:08:10.083Z,10.82
2019-03-31T15:10:39.334Z,8.95
2019-03-31T15:13:08.493Z,10.20
2019-03-31T15:15:37.699Z,8.33
2019-03-31T15:18:06.934Z,15.75
2019-03-31T15:20:36.163Z,9.63
2019-03-31T15:23:05.794Z,9.25
2019-03-31T15:25:35.104Z,6.27
2019-03-31T15:28:04.343Z,7.40
2019-03-31T15:30:33.520Z,6.35
2019-03-31T15:33:02.684Z,6.80
2019-03-31T15:35:31.851Z,7.35
2019-03-31T15:38:01.295Z,11.00
2019-03-31T15:40:30.453Z,5.65
2019-03-31T15:42:59.678Z,8.93
2019-03-31T15:45:28.855Z,10.15
2019-03-31T15:47:58.032Z,7.08
2019-03-31T15:50:27.283Z,10.85
2019-03-31T15:52:56.451Z,8.88
2019-03-31T15:55:25.606Z,13.13
2019-03-31T15:57:54.787Z,11.60
2019-03-31T16:00:23.970Z,13.48
2019-03-31T16:02:53.130Z,6.28
2019-03-31T16:05:22.380Z,11.65
2019-03-31T16:07:51.558Z,14.15
2019-03-31T16:10:20.724Z,10.95
2019-03-31T16:12:49.879Z,6.55
2019-03-31T16:15:19.139Z,10.53
2019-03-31T16:17:48.380Z,14.73
2019-03-31T16:20:20.632Z,8.23
2019-03-31T16:22:49.784Z,6.10
2019-03-31T16:25:26.842Z,9.35
2019-03-31T16:27:56.073Z,11.25
2019-03-31T16:30:25.238Z,11.75
2019-03-31T16:32:54.404Z,9.25
2019-03-31T16:35:23.571Z,9.78
2019-03-31T16:37:52.752Z,10.15
2019-03-31T16:40:21.992Z,12.78
2019-03-31T16:42:51.268Z,5.78
2019-03-31T16:45:20.520Z,16.80
2019-03-31T16:47:49.681Z,7.60
2019-03-31T16:50:18.988Z,9.13
2019-03-31T16:52:48.223Z,10.63
2019-03-31T16:55:17.529Z,10.20
2019-03-31T16:57:46.677Z,8.48
2019-03-31T17:00:17.939Z,7.05
2019-03-31T17:02:47.106Z,10.98
2019-03-31T17:05:21.989Z,6.05
2019-03-31T17:07:47.188Z,9.18
2019-03-31T17:10:16.489Z,11.85
2019-03-31T17:12:45.662Z,11.08
2019-03-31T18:10:53.543Z,9.23
2019-03-31T18:13:22.784Z,14.00
2019-03-31T18:15:52.080Z,8.78
2019-03-31T18:18:21.279Z,13.05
2019-03-31T18:20:50.500Z,10.48
2019-03-31T18:23:19.838Z,14.55
2019-03-31T18:25:52.002Z,11.10
2019-03-31T18:28:21.306Z,15.90
2019-03-31T18:30:55.493Z,11.57
2019-03-31T18:33:24.775Z,15.65
2019-03-31T18:35:54.003Z,9.65
2019-03-31T18:38:23.297Z,11.85
2019-03-31T18:40:52.525Z,12.90
2019-03-31T18:43:21.740Z,14.75
2019-03-31T18:45:50.957Z,8.00
2019-03-31T18:48:20.124Z,10.88
2019-03-31T18:50:49.426Z,11.43
2019-03-31T18:53:23.346Z,8.48
2019-03-31T18:56:10.553Z,10.98
2019-03-31T18:58:43.817Z,11.35
2019-03-31T19:01:14.718Z,9.45
2019-03-31T19:03:48.530Z,10.40
2019-03-31T19:06:28.306Z,10.45
2019-03-31T19:09:07.887Z,14.10
2019-03-31T19:11:54.651Z,10.78
2019-03-31T19:14:28.560Z,11.12
2019-03-31T19:17:15.626Z,10.35
2019-03-31T19:20:02.823Z,6.45
2019-03-31T19:22:33.636Z,11.90
2019-03-31T19:25:07.235Z,9.70
2019-03-31T19:27:38.069Z,14.30
2019-03-31T19:30:09.117Z,12.30
2019-03-31T19:32:42.998Z,9.65
2019-03-31T19:35:19.922Z,9.85
2019-03-31T19:37:56.310Z,13.68
2019-03-31T19:40:43.514Z,9.00
2019-03-31T19:43:17.026Z,9.83
2019-03-31T19:46:06.128Z,11.45
2019-03-31T19:48:42.937Z,11.35
2019-03-31T19:51:22.914Z,6.87
2019-03-31T19:54:09.581Z,6.28
2019-03-31T19:56:56.807Z,8.28
2019-03-31T19:59:27.642Z,4.67
2019-03-31T20:02:04.662Z,11.12
2019-03-31T20:04:51.566Z,9.65
2019-03-31T20:07:38.253Z,10.60
2019-03-31T20:10:17.933Z,8.63
2019-03-31T20:12:57.793Z,8.17
2019-03-31T20:15:28.606Z,6.28
2019-03-31T20:18:11.103Z,10.60
2019-03-31T20:20:41.968Z,8.25
2019-03-31T20:23:29.126Z,10.65
2019-03-31T20:26:03.711Z,8.05
2019-03-31T20:28:35.116Z,6.92
2019-03-31T20:31:08.783Z,11.78
2019-03-31T20:33:48.375Z,13.90
2019-03-31T20:36:19.192Z,14.87
2019-03-31T20:39:08.093Z,8.93
2019-03-31T20:41:38.976Z,11.65
2019-03-31T20:44:08.344Z,11.73
2019-03-31T20:46:37.477Z,9.18
2019-03-31T20:49:06.718Z,10.00
2019-03-31T20:51:35.899Z,9.40
2019-03-31T20:54:05.117Z,10.82
2019-03-31T20:56:34.361Z,7.30
2019-03-31T20:59:03.575Z,13.35
2019-03-31T21:01:32.768Z,11.00
2019-03-31T21:04:02.077Z,11.30
2019-03-31T21:06:31.286Z,9.75
2019-03-31T21:09:00.570Z,13.98
2019-03-31T21:11:29.738Z,9.38
2019-03-31T21:13:58.978Z,10.10
2019-03-31T21:16:28.105Z,8.18
2019-03-31T21:18:57.399Z,10.18
2019-03-31T21:21:26.660Z,13.00
2019-03-31T21:23:55.808Z,18.10
2019-03-31T21:26:29.543Z,9.75
2019-03-31T21:28:58.766Z,13.30
2019-03-31T21:31:27.919Z,12.18
2019-03-31T21:33:57.101Z,13.10
2019-03-31T21:36:26.289Z,10.00
2019-03-31T21:38:55.508Z,9.53
2019-03-31T21:41:24.683Z,12.35
2019-03-31T21:43:53.874Z,8.10
2019-03-31T21:46:23.074Z,12.20
2019-03-31T21:48:52.309Z,10.18
2019-03-31T21:51:21.638Z,11.83
2019-03-31T21:53:50.835Z,12.10
2019-03-31T21:56:20.093Z,21.10
2019-03-31T21:58:49.252Z,11.60
2019-03-31T22:01:18.456Z,9.03
2019-03-31T22:03:47.661Z,13.70
2019-03-31T22:06:16.810Z,10.88
2019-03-31T22:08:46.006Z,10.53
2019-03-31T22:11:15.309Z,9.63
2019-03-31T22:13:44.485Z,8.18
2019-03-31T22:16:13.696Z,7.83
2019-03-31T22:18:42.871Z,8.13
2019-03-31T22:21:12.098Z,11.03
2019-03-31T22:23:41.259Z,8.45
2019-03-31T22:26:10.414Z,8.68
2019-03-31T22:28:39.692Z,8.60
2019-03-31T22:31:08.912Z,19.15
2019-03-31T22:33:38.070Z,8.83
2019-03-31T22:36:22.149Z,13.78
2019-03-31T22:38:52.715Z,15.95
2019-03-31T22:43:50.703Z,7.33
2019-03-31T22:46:19.933Z,6.45
2019-03-31T22:48:49.145Z,8.35
2019-03-31T22:51:18.374Z,13.48
2019-03-31T22:53:47.536Z,10.53
2019-03-31T22:56:16.736Z,12.25
2019-03-31T22:58:45.926Z,10.13
2019-03-31T23:01:15.054Z,8.48
2019-03-31T23:03:44.240Z,9.85
2019-03-31T23:06:13.568Z,13.72
2019-03-31T23:08:43.000Z,10.28
2019-03-31T23:11:12.124Z,9.43
2019-03-31T23:13:41.335Z,10.05
2019-03-31T23:16:10.704Z,12.90
2019-03-31T23:18:41.554Z,13.45
2019-03-31T23:21:10.703Z,8.85
2019-03-31T23:23:39.924Z,16.85
2019-03-31T23:26:09.115Z,10.55
2019-03-31T23:28:40.072Z,7.67
2019-03-31T23:31:09.296Z,13.60
2019-03-31T23:33:38.425Z,9.10
2019-03-31T23:36:07.611Z,9.20
2019-03-31T23:38:36.803Z,12.33
2019-03-31T23:41:05.971Z,11.12
2019-03-31T23:43:35.159Z,11.10
2019-03-31T23:46:04.402Z,8.33
2019-03-31T23:48:33.572Z,8.38
2019-03-31T23:51:02.786Z,10.40
2019-03-31T23:53:31.942Z,11.20
2019-03-31T23:56:01.133Z,6.72
2019-03-31T23:58:30.352Z,10.50
